Time,TemperatureF,DewpointF,PressureIn,WindDirection,WindDirectionDegrees,WindSpeedMPH,WindSpeedGustMPH,Humidity,HourlyPrecipIn,Conditions,Clouds,dailyrainin,SoftwareType,DateUTC
2013-01-20 00:05:00,1.0,-15.3,29.12,NW,310,4.0,4.0,45,0.00,,---,0.00,VWS V14.01,2013-01-20 06:05:00,
2013-01-20 00:10:00,0.9,-15.5,29.12,WNW,292,3.6,3.6,45,0.00,,---,0.00,VWS V14.01,2013-01-20 06:10:00,
2013-01-20 00:15:00,0.7,-15.7,29.15,WNW,285,6.3,6.3,45,0.00,,---,0.00,VWS V14.01,2013-01-20 06:15:00,
2013-01-20 00:25:00,0.7,-15.7,29.15,WNW,293,5.4,5.4,45,0.00,,---,0.00,VWS V14.01,2013-01-20 06:25:00,
2013-01-20 00:30:00,0.5,-15.8,29.15,WNW,290,8.3,8.3,45,0.00,,---,0.00,VWS V14.01,2013-01-20 06:30:00,
2013-01-20 00:35:00,0.3,-16.0,29.15,West,277,8.3,8.3,45,0.00,,---,0.00,VWS V14.01,2013-01-20 06:35:00,
2013-01-20 00:40:00,0.3,-16.0,29.15,WNW,301,6.3,6.3,45,0.00,,---,0.00,VWS V14.01,2013-01-20 06:40:00,
2013-01-20 00:50:00,0.3,-16.0,29.15,West,278,6.3,6.3,45,0.00,,---,0.00,VWS V14.01,2013-01-20 06:50:00,
2013-01-20 00:55:00,0.3,-16.0,29.15,NW,320,5.4,5.4,45,0.00,,---,0.00,VWS V14.01,2013-01-20 06:55:00,
2013-01-20 01:05:00,0.1,-16.2,29.15,North,349,6.3,6.3,45,0.00,,---,0.00,VWS V14.01,2013-01-20 07:05:00,
2013-01-20 01:10:00,0.1,-16.2,29.15,WNW,294,6.3,6.3,45,0.00,,---,0.00,VWS V14.01,2013-01-20 07:10:00,
2013-01-20 01:20:00,0.0,-16.3,29.15,NNW,333,8.3,8.3,45,0.00,,---,0.00,VWS V14.01,2013-01-20 07:20:00,
2013-01-20 01:30:00,0.0,-16.3,29.15,NNW,341,4.0,4.0,45,0.00,,---,0.00,VWS V14.01,2013-01-20 07:30:00,
2013-01-20 01:40:00,-0.2,-16.5,29.15,NW,304,3.1,3.1,45,0.00,,---,0.00,VWS V14.01,2013-01-20 07:40:00,
2013-01-20 01:45:00,-0.4,-16.7,29.18,WNW,290,4.0,4.0,45,0.00,,---,0.00,VWS V14.01,2013-01-20 07:45:00,
2013-01-20 01:50:00,-0.4,-16.7,29.18,NW,304,5.8,5.8,45,0.00,,---,0.00,VWS V14.01,2013-01-20 07:50:00,
2013-01-20 01:55:00,-0.6,-16.8,29.18,West,279,3.1,3.1,45,0.00,,---,0.00,VWS V14.01,2013-01-20 07:55:00,
2013-01-20 02:05:00,-0.6,-16.8,29.18,NW,310,3.1,3.1,45,0.00,,---,0.00,VWS V14.01,2013-01-20 08:05:00,
2013-01-20 02:15:00,-0.9,-17.1,29.18,WNW,288,3.6,3.6,45,0.00,,---,0.00,VWS V14.01,2013-01-20 08:15:00,
2013-01-20 02:20:00,-0.9,-17.1,29.18,WNW,296,3.6,3.6,45,0.00,,---,0.00,VWS V14.01,2013-01-20 08:20:00,
2013-01-20 02:30:00,-1.1,-17.3,29.21,NW,305,4.0,4.0,45,0.00,,---,0.00,VWS V14.01,2013-01-20 08:30:00,
2013-01-20 02:35:00,-1.3,-17.5,29.21,WNW,298,5.4,5.4,45,0.00,,---,0.00,VWS V14.01,2013-01-20 08:35:00,
2013-01-20 02:45:00,-1.1,-17.3,29.21,West,269,5.8,5.8,45,0.00,,---,0.00,VWS V14.01,2013-01-20 08:45:00,
2013-01-20 02:55:00,-1.1,-17.3,29.21,NW,314,2.7,2.7,45,0.00,,---,0.00,VWS V14.01,2013-01-20 08:55:00,
2013-01-20 03:05:00,-0.9,-17.1,29.21,NW,308,4.0,4.0,45,0.00,,---,0.00,VWS V14.01,2013-01-20 09:05:00,
2013-01-20 03:15:00,-1.1,-17.3,29.21,NW,308,6.3,6.3,45,0.00,,---,0.00,VWS V14.01,2013-01-20 09:15:00,
2013-01-20 03:25:00,-1.1,-17.3,29.21,WNW,297,5.4,5.4,45,0.00,,---,0.00,VWS V14.01,2013-01-20 09:25:00,
2013-01-20 03:30:00,-1.1,-17.3,29.21,WNW,297,3.6,3.6,45,0.00,,---,0.00,VWS V14.01,2013-01-20 09:30:00,
2013-01-20 03:35:00,-1.1,-17.3,29.21,NW,317,0.0,0.0,45,0.00,,---,0.00,VWS V14.01,2013-01-20 09:35:00,
2013-01-20 03:40:00,-1.3,-17.5,29.21,North,6,8.1,8.1,45,0.00,,---,0.00,VWS V14.01,2013-01-20 09:40:00,
2013-01-20 03:50:00,-1.3,-17.5,29.21,NW,318,3.6,3.6,45,0.00,,---,0.00,VWS V14.01,2013-01-20 09:50:00,
2013-01-20 04:00:00,-1.3,-17.5,29.21,NW,311,3.6,3.6,45,0.00,,---,0.00,VWS V14.01,2013-01-20 10:00:00,
2013-01-20 04:05:00,-1.5,-17.6,29.21,WNW,297,3.1,3.1,45,0.00,,---,0.00,VWS V14.01,2013-01-20 10:05:00,
2013-01-20 04:10:00,-1.7,-17.8,29.21,West,265,6.3,6.3,45,0.00,,---,0.00,VWS V14.01,2013-01-20 10:10:00,
2013-01-20 04:15:00,-1.7,-17.8,29.23,WNW,283,3.6,3.6,45,0.00,,---,0.00,VWS V14.01,2013-01-20 10:15:00,
2013-01-20 04:25:00,-1.8,-18.0,29.23,West,280,4.9,4.9,45,0.00,,---,0.00,VWS V14.01,2013-01-20 10:25:00,
2013-01-20 04:35:00,-1.8,-18.0,29.21,NW,324,5.8,5.8,45,0.00,,---,0.00,VWS V14.01,2013-01-20 10:35:00,
2013-01-20 04:40:00,-1.8,-18.0,29.21,West,272,0.0,0.0,45,0.00,,---,0.00,VWS V14.01,2013-01-20 10:40:00,
2013-01-20 04:50:00,-1.8,-18.0,29.21,WNW,303,3.1,3.1,45,0.00,,---,0.00,VWS V14.01,2013-01-20 10:50:00,
2013-01-20 05:00:00,-1.8,-18.0,29.23,WNW,286,5.8,5.8,45,0.00,,---,0.00,VWS V14.01,2013-01-20 11:00:00,
2013-01-20 05:05:00,-1.8,-18.0,29.23,NW,304,3.6,3.6,45,0.00,,---,0.00,VWS V14.01,2013-01-20 11:05:00,
2013-01-20 05:15:00,-1.7,-17.8,29.23,WNW,294,4.9,4.9,45,0.00,,---,0.00,VWS V14.01,2013-01-20 11:15:00,
2013-01-20 05:25:00,-1.5,-17.6,29.23,NW,321,3.1,3.1,45,0.00,,---,0.00,VWS V14.01,2013-01-20 11:25:00,
2013-01-20 05:35:00,-1.7,-17.8,29.21,NW,310,2.7,2.7,45,0.00,,---,0.00,VWS V14.01,2013-01-20 11:35:00,
2013-01-20 05:45:00,-1.5,-17.6,29.21,North,357,2.7,2.7,45,0.00,,---,0.00,VWS V14.01,2013-01-20 11:45:00,
2013-01-20 05:50:00,-1.5,-17.6,29.21,North,357,2.2,2.2,45,0.00,,---,0.00,VWS V14.01,2013-01-20 11:50:00,
2013-01-20 06:00:00,-1.7,-17.8,29.23,NW,308,2.7,2.7,45,0.00,,---,0.00,VWS V14.01,2013-01-20 12:00:00,
2013-01-20 06:10:00,-1.7,-17.8,29.23,NW,306,2.7,2.7,45,0.00,,---,0.00,VWS V14.01,2013-01-20 12:10:00,
2013-01-20 06:20:00,-1.5,-17.6,29.23,West,268,2.7,2.7,45,0.00,,---,0.00,VWS V14.01,2013-01-20 12:20:00,
2013-01-20 06:25:00,-1.5,-17.6,29.23,WNW,289,4.0,4.0,45,0.00,,---,0.00,VWS V14.01,2013-01-20 12:25:00,
2013-01-20 06:35:00,-1.5,-17.6,29.21,NNW,331,5.4,5.4,45,0.00,,---,0.00,VWS V14.01,2013-01-20 12:35:00,
2013-01-20 06:45:00,-1.5,-17.6,29.23,WNW,295,2.7,2.7,45,0.00,,---,0.00,VWS V14.01,2013-01-20 12:45:00,
2013-01-20 06:50:00,-1.5,-17.6,29.23,NW,309,2.2,2.2,45,0.00,,---,0.00,VWS V14.01,2013-01-20 12:50:00,
2013-01-20 07:00:00,-1.5,-17.6,29.23,NW,314,2.7,2.7,45,0.00,,---,0.00,VWS V14.01,2013-01-20 13:00:00,
2013-01-20 07:10:00,-1.5,-17.6,29.23,West,269,0.0,0.0,45,0.00,,---,0.00,VWS V14.01,2013-01-20 13:10:00,
2013-01-20 07:20:00,-1.5,-17.6,29.23,WNW,303,3.1,3.1,45,0.00,,---,0.00,VWS V14.01,2013-01-20 13:20:00,
2013-01-20 07:30:00,-1.7,-17.8,29.23,West,277,0.0,0.0,45,0.00,,---,0.00,VWS V14.01,2013-01-20 13:30:00,
2013-01-20 07:35:00,-1.7,-17.8,29.23,West,277,2.7,2.7,45,0.00,,---,0.00,VWS V14.01,2013-01-20 13:35:00,
2013-01-20 07:45:00,-1.8,-18.0,29.23,West,281,2.7,2.7,45,0.00,,---,0.00,VWS V14.01,2013-01-20 13:45:00,
2013-01-20 07:55:00,-1.8,-18.0,29.23,West,273,0.0,0.0,45,0.00,,---,0.00,VWS V14.01,2013-01-20 13:55:00,
2013-01-20 08:05:00,-1.8,-18.0,29.23,WNW,282,3.1,3.1,45,0.00,,---,0.00,VWS V14.01,2013-01-20 14:05:00,
2013-01-20 08:10:00,-1.8,-18.0,29.23,WNW,283,2.7,2.7,45,0.00,,---,0.00,VWS V14.01,2013-01-20 14:10:00,
2013-01-20 08:20:00,-1.3,-17.5,29.23,NW,311,3.1,3.1,45,0.00,,---,0.00,VWS V14.01,2013-01-20 14:20:00,
2013-01-20 08:30:00,-1.3,-17.5,29.26,WNW,288,2.7,2.7,45,0.00,,---,0.00,VWS V14.01,2013-01-20 14:30:00,
2013-01-20 08:35:00,-1.3,-17.5,29.26,NW,314,2.7,2.7,45,0.00,,---,0.00,VWS V14.01,2013-01-20 14:35:00,
2013-01-20 08:45:00,-1.3,-17.5,29.26,NW,310,4.0,4.0,45,0.00,,---,0.00,VWS V14.01,2013-01-20 14:45:00,
2013-01-20 08:55:00,-0.9,-17.1,29.26,NW,323,2.2,2.2,45,0.00,,---,0.00,VWS V14.01,2013-01-20 14:55:00,
2013-01-20 09:00:00,-0.6,-16.8,29.26,WNW,303,3.1,3.1,45,0.00,,---,0.00,VWS V14.01,2013-01-20 15:00:00,
2013-01-20 09:05:00,-0.6,-16.8,29.26,WNW,293,4.0,4.0,45,0.00,,---,0.00,VWS V14.01,2013-01-20 15:05:00,
2013-01-20 09:15:00,-0.6,-16.8,29.26,WNW,299,3.6,3.6,45,0.00,,---,0.00,VWS V14.01,2013-01-20 15:15:00,
2013-01-20 09:20:00,-0.6,-16.8,29.26,NW,324,5.8,5.8,45,0.00,,---,0.00,VWS V14.01,2013-01-20 15:20:00,
2013-01-20 09:30:00,0.1,-16.2,29.26,NNW,333,5.8,5.8,45,0.00,,---,0.00,VWS V14.01,2013-01-20 15:30:00,
2013-01-20 09:40:00,0.5,-15.8,29.26,NW,314,6.3,6.3,45,0.00,,---,0.00,VWS V14.01,2013-01-20 15:40:00,
2013-01-20 09:45:00,0.7,-15.7,29.29,NW,314,4.9,4.9,45,0.00,,---,0.00,VWS V14.01,2013-01-20 15:45:00,
2013-01-20 09:55:00,1.2,-15.2,29.29,NW,319,5.4,5.4,45,0.00,,---,0.00,VWS V14.01,2013-01-20 15:55:00,
2013-01-20 10:05:00,1.6,-14.8,29.29,WNW,291,5.4,5.4,45,0.00,,---,0.00,VWS V14.01,2013-01-20 16:05:00,
2013-01-20 10:15:00,1.9,-14.5,29.29,West,267,4.0,4.0,45,0.00,,---,0.00,VWS V14.01,2013-01-20 16:15:00,
2013-01-20 10:20:00,1.8,-14.7,29.29,WNW,286,5.4,5.4,45,0.00,,---,0.00,VWS V14.01,2013-01-20 16:20:00,
2013-01-20 10:25:00,1.9,-14.5,29.29,NW,326,8.1,8.1,45,0.00,,---,0.00,VWS V14.01,2013-01-20 16:25:00,
2013-01-20 10:30:00,2.5,-14.0,29.29,WNW,293,8.1,8.1,45,0.00,,---,0.00,VWS V14.01,2013-01-20 16:30:00,
2013-01-20 10:35:00,2.5,-14.0,29.29,WNW,303,8.1,8.1,45,0.00,,---,0.00,VWS V14.01,2013-01-20 16:35:00,
2013-01-20 10:40:00,2.5,-14.0,29.29,WNW,300,4.9,4.9,45,0.00,,---,0.00,VWS V14.01,2013-01-20 16:40:00,
2013-01-20 10:45:00,2.8,-13.7,29.29,NW,324,3.6,3.6,45,0.00,,---,0.00,VWS V14.01,2013-01-20 16:45:00,
2013-01-20 10:50:00,3.7,-12.9,29.29,NW,312,0.0,0.0,45,0.00,,---,0.00,VWS V14.01,2013-01-20 16:50:00,
2013-01-20 11:00:00,3.4,-13.2,29.29,West,279,5.8,5.8,45,0.00,,---,0.00,VWS V14.01,2013-01-20 17:00:00,
2013-01-20 11:05:00,3.2,-13.3,29.29,WNW,291,7.6,7.6,45,0.00,,---,0.00,VWS V14.01,2013-01-20 17:05:00,
2013-01-20 11:10:00,3.4,-13.2,29.29,West,266,3.6,3.6,45,0.00,,---,0.00,VWS V14.01,2013-01-20 17:10:00,
2013-01-20 11:20:00,3.7,-12.9,29.29,WSW,243,6.3,6.3,45,0.00,,---,0.00,VWS V14.01,2013-01-20 17:20:00,
2013-01-20 11:25:00,3.9,-12.7,29.29,West,264,5.8,5.8,45,0.00,,---,0.00,VWS V14.01,2013-01-20 17:25:00,
2013-01-20 11:35:00,4.3,-12.4,29.26,WNW,296,4.0,4.0,45,0.00,,---,0.00,VWS V14.01,2013-01-20 17:35:00,
2013-01-20 11:40:00,4.8,-11.9,29.26,West,265,4.0,4.0,45,0.00,,---,0.00,VWS V14.01,2013-01-20 17:40:00,
2013-01-20 11:50:00,5.4,-11.4,29.26,WNW,298,3.1,3.1,45,0.00,,---,0.00,VWS V14.01,2013-01-20 17:50:00,
2013-01-20 12:00:00,5.2,-11.5,29.26,NW,314,2.7,2.7,45,0.00,,---,0.00,VWS V14.01,2013-01-20 18:00:00,
2013-01-20 12:10:00,5.7,-11.0,29.26,West,279,3.6,3.6,45,0.00,,---,0.00,VWS V14.01,2013-01-20 18:10:00,
2013-01-20 12:15:00,6.3,-10.5,29.26,West,273,2.7,2.7,45,0.00,,---,0.00,VWS V14.01,2013-01-20 18:15:00,
2013-01-20 12:25:00,7.7,-9.2,29.26,WNW,295,0.0,0.0,45,0.00,,---,0.00,VWS V14.01,2013-01-20 18:25:00,
2013-01-20 12:30:00,8.1,-8.9,29.23,NW,305,8.1,8.1,45,0.00,,---,0.00,VWS V14.01,2013-01-20 18:30:00,
2013-01-20 12:35:00,7.7,-9.2,29.23,West,276,4.9,4.9,45,0.00,,---,0.00,VWS V14.01,2013-01-20 18:35:00,
2013-01-20 12:45:00,7.7,-9.2,29.23,WNW,298,5.4,5.4,45,0.00,,---,0.00,VWS V14.01,2013-01-20 18:45:00,
2013-01-20 12:50:00,8.4,-8.5,29.23,West,273,8.1,8.1,45,0.00,,---,0.00,VWS V14.01,2013-01-20 18:50:00,
2013-01-20 12:55:00,8.6,-8.4,29.23,NW,325,6.3,6.3,45,0.00,,---,0.00,VWS V14.01,2013-01-20 18:55:00,
2013-01-20 13:00:00,8.2,-8.7,29.23,WNW,290,4.0,4.0,45,0.00,,---,0.00,VWS V14.01,2013-01-20 19:00:00,
2013-01-20 13:10:00,7.9,-9.0,29.23,NW,307,4.0,4.0,45,0.00,,---,0.00,VWS V14.01,2013-01-20 19:10:00,
2013-01-20 13:20:00,7.9,-9.0,29.23,West,274,4.0,4.0,45,0.00,,---,0.00,VWS V14.01,2013-01-20 19:20:00,
2013-01-20 13:25:00,7.9,-9.0,29.23,WSW,238,8.7,8.7,45,0.00,,---,0.00,VWS V14.01,2013-01-20 19:25:00,
2013-01-20 13:30:00,8.1,-8.9,29.23,NW,305,6.3,6.3,45,0.00,,---,0.00,VWS V14.01,2013-01-20 19:30:00,
2013-01-20 13:35:00,8.6,-8.4,29.23,WSW,252,3.1,3.1,45,0.00,,---,0.00,VWS V14.01,2013-01-20 19:35:00,
2013-01-20 13:45:00,8.2,-8.7,29.21,WSW,255,8.7,8.7,45,0.00,,---,0.00,VWS V14.01,2013-01-20 19:45:00,
2013-01-20 13:50:00,8.6,-8.4,29.21,WSW,247,6.3,6.3,45,0.00,,---,0.00,VWS V14.01,2013-01-20 19:50:00,
2013-01-20 14:00:00,7.7,-9.2,29.21,WNW,288,4.0,4.0,45,0.00,,---,0.00,VWS V14.01,2013-01-20 20:00:00,
2013-01-20 14:10:00,6.4,-10.4,29.21,West,273,5.4,5.4,45,0.00,,---,0.00,VWS V14.01,2013-01-20 20:10:00,
2013-01-20 14:15:00,6.4,-10.4,29.21,SW,230,8.1,8.1,45,0.00,,---,0.00,VWS V14.01,2013-01-20 20:15:00,
2013-01-20 14:20:00,6.6,-10.2,29.21,West,264,7.6,7.6,45,0.00,,---,0.00,VWS V14.01,2013-01-20 20:20:00,
2013-01-20 14:30:00,6.4,-10.4,29.21,WSW,251,5.4,5.4,45,0.00,,---,0.00,VWS V14.01,2013-01-20 20:30:00,
2013-01-20 14:35:00,6.6,-10.2,29.21,West,263,5.4,5.4,45,0.00,,---,0.00,VWS V14.01,2013-01-20 20:35:00,
2013-01-20 14:40:00,6.8,-10.0,29.21,WSW,257,5.8,5.8,45,0.00,,---,0.00,VWS V14.01,2013-01-20 20:40:00,
2013-01-20 14:45:00,7.0,-9.9,29.21,NW,320,5.4,5.4,45,0.00,,---,0.00,VWS V14.01,2013-01-20 20:45:00,
2013-01-20 14:55:00,7.0,-9.9,29.21,WNW,295,7.2,7.2,45,0.00,,---,0.00,VWS V14.01,2013-01-20 20:55:00,
2013-01-20 15:05:00,6.8,-10.0,29.18,West,261,3.6,3.6,45,0.00,,---,0.00,VWS V14.01,2013-01-20 21:05:00,
2013-01-20 15:10:00,6.6,-10.2,29.18,West,277,3.6,3.6,45,0.00,,---,0.00,VWS V14.01,2013-01-20 21:10:00,
2013-01-20 15:20:00,6.8,-10.0,29.21,NW,324,10.1,10.1,45,0.00,,---,0.00,VWS V14.01,2013-01-20 21:20:00,
2013-01-20 15:30:00,6.4,-10.4,29.21,WNW,297,8.1,8.1,45,0.00,,---,0.00,VWS V14.01,2013-01-20 21:30:00,
2013-01-20 15:40:00,6.6,-10.2,29.21,NW,307,8.1,8.1,45,0.00,,---,0.00,VWS V14.01,2013-01-20 21:40:00,
2013-01-20 15:45:00,6.4,-10.4,29.21,NW,304,6.3,6.3,45,0.00,,---,0.00,VWS V14.01,2013-01-20 21:45:00,
2013-01-20 15:50:00,6.4,-10.4,29.21,NW,305,5.4,5.4,45,0.00,,---,0.00,VWS V14.01,2013-01-20 21:50:00,
2013-01-20 15:55:00,6.6,-10.2,29.21,NW,310,7.2,7.2,45,0.00,,---,0.00,VWS V14.01,2013-01-20 21:55:00,
2013-01-20 16:05:00,6.1,-10.7,29.21,NW,315,6.3,6.3,45,0.00,,---,0.00,VWS V14.01,2013-01-20 22:05:00,
2013-01-20 16:10:00,6.1,-10.7,29.21,NW,305,6.3,6.3,45,0.00,,---,0.00,VWS V14.01,2013-01-20 22:10:00,
2013-01-20 16:20:00,6.1,-10.7,29.21,WNW,293,2.7,2.7,45,0.00,,---,0.00,VWS V14.01,2013-01-20 22:20:00,
2013-01-20 16:25:00,5.9,-10.9,29.21,WNW,290,3.1,3.1,45,0.00,,---,0.00,VWS V14.01,2013-01-20 22:25:00,
2013-01-20 16:30:00,5.7,-11.0,29.21,WNW,301,6.3,6.3,45,0.00,,---,0.00,VWS V14.01,2013-01-20 22:30:00,
2013-01-20 16:35:00,5.9,-10.9,29.21,West,266,3.1,3.1,45,0.00,,---,0.00,VWS V14.01,2013-01-20 22:35:00,
2013-01-20 16:40:00,5.7,-11.0,29.21,WNW,291,3.1,3.1,45,0.00,,---,0.00,VWS V14.01,2013-01-20 22:40:00,
2013-01-20 16:50:00,5.5,-11.2,29.21,WNW,284,2.7,2.7,45,0.00,,---,0.00,VWS V14.01,2013-01-20 22:50:00,
2013-01-20 16:55:00,5.4,-11.4,29.21,WNW,303,2.7,2.7,45,0.00,,---,0.00,VWS V14.01,2013-01-20 22:55:00,
2013-01-20 17:05:00,5.2,-11.5,29.18,WNW,283,2.7,2.7,45,0.00,,---,0.00,VWS V14.01,2013-01-20 23:05:00,
2013-01-20 17:15:00,5.0,-11.7,29.18,WNW,290,2.7,2.7,45,0.00,,---,0.00,VWS V14.01,2013-01-20 23:15:00,
2013-01-20 17:20:00,5.0,-11.7,29.18,NW,308,0.0,0.0,45,0.00,,---,0.00,VWS V14.01,2013-01-20 23:20:00,
2013-01-20 17:30:00,5.0,-11.7,29.18,West,281,3.6,3.6,45,0.00,,---,0.00,VWS V14.01,2013-01-20 23:30:00,
2013-01-20 17:40:00,4.6,-12.0,29.18,West,280,0.0,0.0,45,0.00,,---,0.00,VWS V14.01,2013-01-20 23:40:00,
2013-01-20 17:45:00,4.5,-12.2,29.18,West,261,0.0,0.0,45,0.00,,---,0.00,VWS V14.01,2013-01-20 23:45:00,
2013-01-20 17:50:00,4.5,-12.2,29.18,West,278,0.0,0.0,45,0.00,,---,0.00,VWS V14.01,2013-01-20 23:50:00,
2013-01-20 17:55:00,4.3,-12.4,29.18,West,278,0.0,0.0,45,0.00,,---,0.00,VWS V14.01,2013-01-20 23:55:00,
2013-01-20 18:05:00,4.1,-12.5,29.18,WNW,284,0.0,0.0,45,0.00,,---,0.00,VWS V14.01,2013-01-21 00:05:00,
2013-01-20 18:10:00,4.1,-12.5,29.18,WNW,288,3.1,3.1,45,0.00,,---,0.00,VWS V14.01,2013-01-21 00:10:00,
2013-01-20 18:15:00,4.1,-12.5,29.18,West,280,3.1,3.1,45,0.00,,---,0.00,VWS V14.01,2013-01-21 00:15:00,
2013-01-20 18:25:00,4.1,-12.5,29.18,WNW,298,3.1,3.1,45,0.00,,---,0.00,VWS V14.01,2013-01-21 00:25:00,
2013-01-20 18:35:00,4.1,-12.5,29.18,WNW,286,2.7,2.7,45,0.00,,---,0.00,VWS V14.01,2013-01-21 00:35:00,
2013-01-20 18:40:00,3.9,-12.7,29.18,WNW,290,6.3,6.3,45,0.00,,---,0.00,VWS V14.01,2013-01-21 00:40:00,
2013-01-20 18:50:00,3.7,-12.9,29.18,West,276,3.1,3.1,45,0.00,,---,0.00,VWS V14.01,2013-01-21 00:50:00,
2013-01-20 18:55:00,3.6,-13.0,29.18,WNW,285,4.9,4.9,45,0.00,,---,0.00,VWS V14.01,2013-01-21 00:55:00,
2013-01-20 19:00:00,3.6,-13.0,29.18,WNW,292,7.2,7.2,45,0.00,,---,0.00,VWS V14.01,2013-01-21 01:00:00,
2013-01-20 19:10:00,3.2,-13.3,29.18,WNW,288,4.0,4.0,45,0.00,,---,0.00,VWS V14.01,2013-01-21 01:10:00,
2013-01-20 19:15:00,3.2,-13.3,29.18,NW,312,8.1,8.1,45,0.00,,---,0.00,VWS V14.01,2013-01-21 01:15:00,
2013-01-20 19:20:00,2.8,-13.7,29.18,West,265,8.3,8.3,45,0.00,,---,0.00,VWS V14.01,2013-01-21 01:20:00,
2013-01-20 19:25:00,2.8,-13.7,29.18,WNW,292,2.7,2.7,45,0.00,,---,0.00,VWS V14.01,2013-01-21 01:25:00,
2013-01-20 19:35:00,2.5,-14.0,29.18,NW,304,4.0,4.0,45,0.00,,---,0.00,VWS V14.01,2013-01-21 01:35:00,
2013-01-20 19:40:00,2.3,-14.2,29.18,West,277,5.4,5.4,45,0.00,,---,0.00,VWS V14.01,2013-01-21 01:40:00,
2013-01-20 19:50:00,1.9,-14.5,29.18,WNW,294,6.7,6.7,45,0.00,,---,0.00,VWS V14.01,2013-01-21 01:50:00,
2013-01-20 20:00:00,1.6,-14.8,29.18,WNW,300,3.6,3.6,45,0.00,,---,0.00,VWS V14.01,2013-01-21 02:00:00,
2013-01-20 20:05:00,1.6,-14.8,29.18,West,268,3.1,3.1,45,0.00,,---,0.00,VWS V14.01,2013-01-21 02:05:00,
2013-01-20 20:10:00,1.4,-15.0,29.18,West,279,4.0,4.0,45,0.00,,---,0.00,VWS V14.01,2013-01-21 02:10:00,
2013-01-20 20:20:00,1.2,-15.2,29.18,WNW,302,5.4,5.4,45,0.00,,---,0.00,VWS V14.01,2013-01-21 02:20:00,
2013-01-20 20:25:00,1.0,-15.3,29.18,WNW,292,5.4,5.4,45,0.00,,---,0.00,VWS V14.01,2013-01-21 02:25:00,
2013-01-20 20:35:00,0.7,-15.7,29.18,WNW,284,5.8,5.8,45,0.00,,---,0.00,VWS V14.01,2013-01-21 02:35:00,
2013-01-20 20:45:00,0.5,-15.8,29.15,WNW,299,3.6,3.6,45,0.00,,---,0.00,VWS V14.01,2013-01-21 02:45:00,
2013-01-20 20:50:00,0.5,-15.8,29.15,WNW,302,6.3,6.3,45,0.00,,---,0.00,VWS V14.01,2013-01-21 02:50:00,
2013-01-20 21:00:00,0.3,-16.0,29.15,NNW,330,5.4,5.4,45,0.00,,---,0.00,VWS V14.01,2013-01-21 03:00:00,
2013-01-20 21:10:00,0.1,-16.2,29.15,NW,322,4.0,4.0,45,0.00,,---,0.00,VWS V14.01,2013-01-21 03:10:00,
2013-01-20 21:20:00,-0.2,-16.5,29.18,NW,304,7.2,7.2,45,0.00,,---,0.00,VWS V14.01,2013-01-21 03:20:00,
2013-01-20 21:25:00,-0.4,-16.7,29.18,NNW,336,8.3,8.3,45,0.00,,---,0.00,VWS V14.01,2013-01-21 03:25:00,
2013-01-20 21:35:00,-0.8,-17.0,29.18,NW,325,6.3,6.3,45,0.00,,---,0.00,VWS V14.01,2013-01-21 03:35:00,
2013-01-20 21:45:00,-0.9,-17.1,29.18,NW,326,5.8,5.8,45,0.00,,---,0.00,VWS V14.01,2013-01-21 03:45:00,
2013-01-20 21:55:00,-1.1,-17.3,29.18,WNW,293,6.7,6.7,45,0.00,,---,0.00,VWS V14.01,2013-01-21 03:55:00,
2013-01-20 22:00:00,-1.3,-17.5,29.18,WNW,288,4.9,4.9,45,0.00,,---,0.00,VWS V14.01,2013-01-21 04:00:00,
2013-01-20 22:05:00,-1.3,-17.5,29.18,NW,312,10.1,10.1,45,0.00,,---,0.00,VWS V14.01,2013-01-21 04:05:00,
2013-01-20 22:10:00,-1.5,-17.6,29.18,WNW,303,5.4,5.4,45,0.00,,---,0.00,VWS V14.01,2013-01-21 04:10:00,
2013-01-20 22:20:00,-1.8,-18.0,29.18,WNW,299,3.1,3.1,45,0.00,,---,0.00,VWS V14.01,2013-01-21 04:20:00,
2013-01-20 22:25:00,-1.8,-18.0,29.18,NNW,340,8.1,8.1,45,0.00,,---,0.00,VWS V14.01,2013-01-21 04:25:00,
2013-01-20 22:30:00,-1.8,-18.0,29.18,NNW,329,4.0,4.0,45,0.00,,---,0.00,VWS V14.01,2013-01-21 04:30:00,
2013-01-20 22:40:00,-2.0,-18.1,29.18,NW,310,7.6,7.6,45,0.00,,---,0.00,VWS V14.01,2013-01-21 04:40:00,
2013-01-20 22:45:00,-2.2,-18.3,29.18,NW,309,4.0,4.0,45,0.00,,---,0.00,VWS V14.01,2013-01-21 04:45:00,
2013-01-20 22:55:00,-2.2,-18.3,29.18,WNW,299,7.6,7.6,45,0.00,,---,0.00,VWS V14.01,2013-01-21 04:55:00,
2013-01-20 23:05:00,-2.4,-18.5,29.18,NW,318,3.1,3.1,45,0.00,,---,0.00,VWS V14.01,2013-01-21 05:05:00,
2013-01-20 23:10:00,-2.4,-18.5,29.18,NNW,329,5.8,5.8,45,0.00,,---,0.00,VWS V14.01,2013-01-21 05:10:00,
2013-01-20 23:15:00,-2.6,-18.6,29.18,NW,304,3.1,3.1,45,0.00,,---,0.00,VWS V14.01,2013-01-21 05:15:00,
2013-01-20 23:20:00,-2.6,-18.6,29.18,NW,314,6.7,6.7,45,0.00,,---,0.00,VWS V14.01,2013-01-21 05:20:00,
2013-01-20 23:30:00,-2.9,-19.0,29.18,NW,314,3.6,3.6,45,0.00,,---,0.00,VWS V14.01,2013-01-21 05:30:00,
2013-01-20 23:40:00,-2.9,-19.0,29.18,NW,317,8.7,8.7,45,0.00,,---,0.00,VWS V14.01,2013-01-21 05:40:00,
2013-01-20 23:50:00,-3.1,-19.1,29.18,WNW,287,4.0,4.0,45,0.00,,---,0.00,VWS V14.01,2013-01-21 05:50:00,
2013-01-20 23:55:00,-3.1,-19.1,29.18,NW,326,7.6,7.6,45,0.00,,---,0.00,VWS V14.01,2013-01-21 05:55:00,